sensor_id;sensor_type;location;lat;lon;timestamp;temperature;humidity
10296;DHT22;5193;51.032;6.356;2024-03-02T00:01:28;8.00;99.90
10296;DHT22;5193;51.032;6.356;2024-03-02T00:03:54;8.00;99.90
10296;DHT22;5193;51.032;6.356;2024-03-02T00:06:23;8.00;99.90
10296;DHT22;5193;51.032;6.356;2024-03-02T00:08:49;8.00;99.90
10296;DHT22;5193;51.032;6.356;2024-03-02T00:11:15;8.00;99.90
10296;DHT22;5193;51.032;6.356;2024-03-02T00:13:41;8.00;99.90
10296;DHT22;5193;51.032;6.356;2024-03-02T00:16:07;8.00;99.90
10296;DHT22;5193;51.032;6.356;2024-03-02T00:18:36;8.10;99.90
10296;DHT22;5193;51.032;6.356;2024-03-02T00:21:02;8.10;99.90
10296;DHT22;5193;51.032;6.356;2024-03-02T00:23:30;8.10;99.90
10296;DHT22;5193;51.032;6.356;2024-03-02T00:25:59;8.00;99.90
10296;DHT22;5193;51.032;6.356;2024-03-02T00:28:35;8.10;99.90
10296;DHT22;5193;51.032;6.356;2024-03-02T00:31:08;8.00;99.90
10296;DHT22;5193;51.032;6.356;2024-03-02T00:33:50;8.10;99.90
10296;DHT22;5193;51.032;6.356;2024-03-02T00:36:16;8.10;99.90
10296;DHT22;5193;51.032;6.356;2024-03-02T00:38:50;8.00;99.90
10296;DHT22;5193;51.032;6.356;2024-03-02T00:41:30;8.00;99.90
10296;DHT22;5193;51.032;6.356;2024-03-02T00:44:07;8.00;99.90
10296;DHT22;5193;51.032;6.356;2024-03-02T00:46:36;8.00;99.90
10296;DHT22;5193;51.032;6.356;2024-03-02T00:49:04;8.00;99.90
10296;DHT22;5193;51.032;6.356;2024-03-02T00:51:31;7.90;99.90
10296;DHT22;5193;51.032;6.356;2024-03-02T00:54:01;7.90;99.90
10296;DHT22;5193;51.032;6.356;2024-03-02T00:56:29;7.80;99.90
10296;DHT22;5193;51.032;6.356;2024-03-02T00:58:56;7.80;99.90
10296;DHT22;5193;51.032;6.356;2024-03-02T01:01:22;7.80;99.90
10296;DHT22;5193;51.032;6.356;2024-03-02T01:03:48;7.70;99.90
10296;DHT22;5193;51.032;6.356;2024-03-02T01:06:15;7.70;99.90
10296;DHT22;5193;51.032;6.356;2024-03-02T01:08:44;7.60;99.90
10296;DHT22;5193;51.032;6.356;2024-03-02T01:11:10;8.10;99.90
10296;DHT22;5193;51.032;6.356;2024-03-02T01:13:35;7.50;99.90
10296;DHT22;5193;51.032;6.356;2024-03-02T01:16:01;7.50;99.90
10296;DHT22;5193;51.032;6.356;2024-03-02T01:18:28;7.50;99.90
10296;DHT22;5193;51.032;6.356;2024-03-02T01:20:53;7.50;99.90
10296;DHT22;5193;51.032;6.356;2024-03-02T01:23:22;7.50;99.90
10296;DHT22;5193;51.032;6.356;2024-03-02T01:25:47;7.50;99.90
10296;DHT22;5193;51.032;6.356;2024-03-02T01:28:14;7.40;99.90
10296;DHT22;5193;51.032;6.356;2024-03-02T01:30:40;7.40;99.90
10296;DHT22;5193;51.032;6.356;2024-03-02T01:33:06;7.50;99.90
10296;DHT22;5193;51.032;6.356;2024-03-02T01:35:32;7.50;99.90
10296;DHT22;5193;51.032;6.356;2024-03-02T01:37:57;7.50;99.90
10296;DHT22;5193;51.032;6.356;2024-03-02T01:40:23;7.50;99.90
10296;DHT22;5193;51.032;6.356;2024-03-02T01:42:52;7.60;99.90
10296;DHT22;5193;51.032;6.356;2024-03-02T01:45:19;7.60;99.90
10296;DHT22;5193;51.032;6.356;2024-03-02T01:47:45;7.60;99.90
10296;DHT22;5193;51.032;6.356;2024-03-02T01:50:16;7.60;99.90
10296;DHT22;5193;51.032;6.356;2024-03-02T01:52:49;7.60;99.90
10296;DHT22;5193;51.032;6.356;2024-03-02T01:55:15;7.60;99.90
10296;DHT22;5193;51.032;6.356;2024-03-02T01:57:40;7.60;99.90
10296;DHT22;5193;51.032;6.356;2024-03-02T02:00:07;7.60;99.90
10296;DHT22;5193;51.032;6.356;2024-03-02T02:02:34;7.70;99.90
10296;DHT22;5193;51.032;6.356;2024-03-02T02:05:03;7.70;99.90
10296;DHT22;5193;51.032;6.356;2024-03-02T02:07:29;7.80;99.90
10296;DHT22;5193;51.032;6.356;2024-03-02T02:09:55;7.90;99.90
10296;DHT22;5193;51.032;6.356;2024-03-02T02:12:22;7.90;99.90
10296;DHT22;5193;51.032;6.356;2024-03-02T02:14:48;8.00;99.90
10296;DHT22;5193;51.032;6.356;2024-03-02T02:17:15;8.10;99.90
10296;DHT22;5193;51.032;6.356;2024-03-02T02:19:44;8.20;99.90
10296;DHT22;5193;51.032;6.356;2024-03-02T02:22:12;8.20;99.90
10296;DHT22;5193;51.032;6.356;2024-03-02T02:24:41;8.20;99.90
10296;DHT22;5193;51.032;6.356;2024-03-02T02:27:08;8.30;99.90
10296;DHT22;5193;51.032;6.356;2024-03-02T02:29:34;8.40;99.90
10296;DHT22;5193;51.032;6.356;2024-03-02T02:32:12;8.40;99.90
10296;DHT22;5193;51.032;6.356;2024-03-02T02:34:42;8.40;99.90
10296;DHT22;5193;51.032;6.356;2024-03-02T02:37:08;8.40;99.90
10296;DHT22;5193;51.032;6.356;2024-03-02T02:39:34;8.40;99.90
10296;DHT22;5193;51.032;6.356;2024-03-02T02:41:59;8.30;99.90
10296;DHT22;5193;51.032;6.356;2024-03-02T02:44:29;8.20;99.90
10296;DHT22;5193;51.032;6.356;2024-03-02T02:46:55;8.10;99.90
10296;DHT22;5193;51.032;6.356;2024-03-02T02:49:20;8.00;99.90
10296;DHT22;5193;51.032;6.356;2024-03-02T02:51:46;7.90;99.90
10296;DHT22;5193;51.032;6.356;2024-03-02T02:54:11;7.90;99.90
10296;DHT22;5193;51.032;6.356;2024-03-02T02:56:37;7.80;99.90
10296;DHT22;5193;51.032;6.356;2024-03-02T02:59:06;7.80;99.90
10296;DHT22;5193;51.032;6.356;2024-03-02T03:01:38;7.70;99.90
10296;DHT22;5193;51.032;6.356;2024-03-02T03:04:03;7.70;99.90
10296;DHT22;5193;51.032;6.356;2024-03-02T03:06:29;7.60;99.90
10296;DHT22;5193;51.032;6.356;2024-03-02T03:08:54;7.60;99.90
10296;DHT22;5193;51.032;6.356;2024-03-02T03:11:20;7.60;99.90
10296;DHT22;5193;51.032;6.356;2024-03-02T03:13:48;7.60;99.90
10296;DHT22;5193;51.032;6.356;2024-03-02T03:16:13;7.50;99.90
10296;DHT22;5193;51.032;6.356;2024-03-02T03:18:41;7.50;99.90
10296;DHT22;5193;51.032;6.356;2024-03-02T03:21:07;7.50;99.90
10296;DHT22;5193;51.032;6.356;2024-03-02T03:23:32;7.50;99.90
10296;DHT22;5193;51.032;6.356;2024-03-02T03:25:58;7.50;99.90
10296;DHT22;5193;51.032;6.356;2024-03-02T03:28:27;7.50;99.90
10296;DHT22;5193;51.032;6.356;2024-03-02T03:30:53;7.40;99.90
10296;DHT22;5193;51.032;6.356;2024-03-02T03:33:18;7.40;99.90
10296;DHT22;5193;51.032;6.356;2024-03-02T03:35:44;7.40;99.90
10296;DHT22;5193;51.032;6.356;2024-03-02T03:38:10;7.30;99.90
10296;DHT22;5193;51.032;6.356;2024-03-02T03:40:35;7.30;99.90
10296;DHT22;5193;51.032;6.356;2024-03-02T03:43:01;7.30;99.90
10296;DHT22;5193;51.032;6.356;2024-03-02T03:45:30;7.20;99.90
10296;DHT22;5193;51.032;6.356;2024-03-02T03:47:56;7.20;99.90
10296;DHT22;5193;51.032;6.356;2024-03-02T03:50:21;7.20;99.90
10296;DHT22;5193;51.032;6.356;2024-03-02T03:52:47;7.10;99.90
10296;DHT22;5193;51.032;6.356;2024-03-02T03:55:15;7.00;99.90
10296;DHT22;5193;51.032;6.356;2024-03-02T03:57:44;7.00;99.90
10296;DHT22;5193;51.032;6.356;2024-03-02T04:00:10;7.00;99.90
10296;DHT22;5193;51.032;6.356;2024-03-02T04:02:36;7.00;99.90
10296;DHT22;5193;51.032;6.356;2024-03-02T04:05:01;7.00;99.90
10296;DHT22;5193;51.032;6.356;2024-03-02T04:07:35;7.00;99.90
10296;DHT22;5193;51.032;6.356;2024-03-02T04:10:10;6.90;99.90
10296;DHT22;5193;51.032;6.356;2024-03-02T04:12:38;6.90;99.90
10296;DHT22;5193;51.032;6.356;2024-03-02T04:15:05;6.90;99.90
10296;DHT22;5193;51.032;6.356;2024-03-02T04:17:32;6.90;99.90
10296;DHT22;5193;51.032;6.356;2024-03-02T04:19:59;6.90;99.90
10296;DHT22;5193;51.032;6.356;2024-03-02T04:22:37;6.90;99.90
10296;DHT22;5193;51.032;6.356;2024-03-02T04:25:03;6.90;99.90
10296;DHT22;5193;51.032;6.356;2024-03-02T04:27:30;6.80;99.90
10296;DHT22;5193;51.032;6.356;2024-03-02T04:29:57;6.90;99.90
10296;DHT22;5193;51.032;6.356;2024-03-02T04:32:22;6.90;99.90
10296;DHT22;5193;51.032;6.356;2024-03-02T04:34:53;6.80;99.90
10296;DHT22;5193;51.032;6.356;2024-03-02T04:37:19;6.80;99.90
10296;DHT22;5193;51.032;6.356;2024-03-02T04:39:45;6.80;99.90
10296;DHT22;5193;51.032;6.356;2024-03-02T04:42:11;6.80;99.90
10296;DHT22;5193;51.032;6.356;2024-03-02T04:44:36;6.80;99.90
10296;DHT22;5193;51.032;6.356;2024-03-02T04:47:05;6.80;99.90
10296;DHT22;5193;51.032;6.356;2024-03-02T04:49:34;6.70;99.90
10296;DHT22;5193;51.032;6.356;2024-03-02T04:51:59;6.70;99.90
10296;DHT22;5193;51.032;6.356;2024-03-02T04:54:25;6.80;99.90
10296;DHT22;5193;51.032;6.356;2024-03-02T04:56:50;6.80;99.90
10296;DHT22;5193;51.032;6.356;2024-03-02T04:59:17;6.80;99.90
10296;DHT22;5193;51.032;6.356;2024-03-02T05:01:46;6.80;99.90
10296;DHT22;5193;51.032;6.356;2024-03-02T05:04:15;6.90;99.90
10296;DHT22;5193;51.032;6.356;2024-03-02T05:06:41;6.80;99.90
10296;DHT22;5193;51.032;6.356;2024-03-02T05:09:08;6.80;99.90
10296;DHT22;5193;51.032;6.356;2024-03-02T05:11:33;6.90;99.90
10296;DHT22;5193;51.032;6.356;2024-03-02T05:14:05;6.90;99.90
10296;DHT22;5193;51.032;6.356;2024-03-02T05:16:41;6.90;99.90
10296;DHT22;5193;51.032;6.356;2024-03-02T05:19:09;6.90;99.90
10296;DHT22;5193;51.032;6.356;2024-03-02T05:21:34;7.00;99.90
10296;DHT22;5193;51.032;6.356;2024-03-02T05:24:00;7.00;99.90
10296;DHT22;5193;51.032;6.356;2024-03-02T05:26:29;7.00;99.90
10296;DHT22;5193;51.032;6.356;2024-03-02T05:28:54;7.00;99.90
10296;DHT22;5193;51.032;6.356;2024-03-02T05:31:20;7.00;99.90
10296;DHT22;5193;51.032;6.356;2024-03-02T05:33:46;7.10;99.90
10296;DHT22;5193;51.032;6.356;2024-03-02T05:36:11;7.10;99.90
10296;DHT22;5193;51.032;6.356;2024-03-02T05:38:37;7.10;99.90
10296;DHT22;5193;51.032;6.356;2024-03-02T05:41:03;7.10;99.90
10296;DHT22;5193;51.032;6.356;2024-03-02T05:43:28;7.10;99.90
10296;DHT22;5193;51.032;6.356;2024-03-02T05:45:54;7.10;99.90
10296;DHT22;5193;51.032;6.356;2024-03-02T05:48:20;7.10;99.90
10296;DHT22;5193;51.032;6.356;2024-03-02T05:50:45;7.10;99.90
10296;DHT22;5193;51.032;6.356;2024-03-02T05:53:11;7.00;99.90
10296;DHT22;5193;51.032;6.356;2024-03-02T05:55:36;7.00;99.90
10296;DHT22;5193;51.032;6.356;2024-03-02T05:58:04;7.00;99.90
10296;DHT22;5193;51.032;6.356;2024-03-02T06:00:32;7.00;99.90
10296;DHT22;5193;51.032;6.356;2024-03-02T06:02:58;7.00;99.90
10296;DHT22;5193;51.032;6.356;2024-03-02T06:05:24;7.00;99.90
10296;DHT22;5193;51.032;6.356;2024-03-02T06:07:50;7.00;99.90
10296;DHT22;5193;51.032;6.356;2024-03-02T06:10:16;7.00;99.90
10296;DHT22;5193;51.032;6.356;2024-03-02T06:12:46;7.00;99.90
10296;DHT22;5193;51.032;6.356;2024-03-02T06:15:11;7.00;99.90
10296;DHT22;5193;51.032;6.356;2024-03-02T06:17:37;7.00;99.90
10296;DHT22;5193;51.032;6.356;2024-03-02T06:20:04;7.00;99.90
10296;DHT22;5193;51.032;6.356;2024-03-02T06:22:33;6.90;99.90
10296;DHT22;5193;51.032;6.356;2024-03-02T06:25:00;6.90;99.90
10296;DHT22;5193;51.032;6.356;2024-03-02T06:27:30;6.90;99.90
10296;DHT22;5193;51.032;6.356;2024-03-02T06:29:56;6.90;99.90
10296;DHT22;5193;51.032;6.356;2024-03-02T06:32:22;7.00;99.90
10296;DHT22;5193;51.032;6.356;2024-03-02T06:34:49;6.90;99.90
10296;DHT22;5193;51.032;6.356;2024-03-02T06:37:15;6.90;99.90
10296;DHT22;5193;51.032;6.356;2024-03-02T06:39:41;6.90;99.90
10296;DHT22;5193;51.032;6.356;2024-03-02T06:42:13;6.90;99.90
10296;DHT22;5193;51.032;6.356;2024-03-02T06:44:38;6.90;99.90
10296;DHT22;5193;51.032;6.356;2024-03-02T06:47:04;6.90;99.90
10296;DHT22;5193;51.032;6.356;2024-03-02T06:49:30;6.90;99.90
10296;DHT22;5193;51.032;6.356;2024-03-02T06:51:55;7.00;99.90
10296;DHT22;5193;51.032;6.356;2024-03-02T06:54:22;7.00;99.90
10296;DHT22;5193;51.032;6.356;2024-03-02T06:56:50;7.00;99.90
10296;DHT22;5193;51.032;6.356;2024-03-02T06:59:15;7.20;99.90
10296;DHT22;5193;51.032;6.356;2024-03-02T07:01:41;7.00;99.90
10296;DHT22;5193;51.032;6.356;2024-03-02T07:04:08;7.10;99.90
10296;DHT22;5193;51.032;6.356;2024-03-02T07:06:34;7.10;99.90
10296;DHT22;5193;51.032;6.356;2024-03-02T07:09:02;7.10;99.90
10296;DHT22;5193;51.032;6.356;2024-03-02T07:11:34;7.10;99.90
10296;DHT22;5193;51.032;6.356;2024-03-02T07:14:25;7.10;99.90
10296;DHT22;5193;51.032;6.356;2024-03-02T07:17:10;7.10;99.90
10296;DHT22;5193;51.032;6.356;2024-03-02T07:19:38;7.10;99.90
10296;DHT22;5193;51.032;6.356;2024-03-02T07:22:06;7.10;99.90
10296;DHT22;5193;51.032;6.356;2024-03-02T07:24:32;7.10;99.90
10296;DHT22;5193;51.032;6.356;2024-03-02T07:26:58;7.10;99.90
10296;DHT22;5193;51.032;6.356;2024-03-02T07:29:23;7.10;99.90
10296;DHT22;5193;51.032;6.356;2024-03-02T07:31:49;7.20;99.90
10296;DHT22;5193;51.032;6.356;2024-03-02T07:34:15;7.20;99.90
10296;DHT22;5193;51.032;6.356;2024-03-02T07:36:40;7.10;99.90
10296;DHT22;5193;51.032;6.356;2024-03-02T07:39:06;7.10;99.90
10296;DHT22;5193;51.032;6.356;2024-03-02T07:41:32;7.10;99.90
10296;DHT22;5193;51.032;6.356;2024-03-02T07:43:58;7.10;99.90
10296;DHT22;5193;51.032;6.356;2024-03-02T07:46:24;7.10;99.90
10296;DHT22;5193;51.032;6.356;2024-03-02T07:48:53;7.10;99.90
10296;DHT22;5193;51.032;6.356;2024-03-02T07:51:18;7.00;99.90
10296;DHT22;5193;51.032;6.356;2024-03-02T07:53:46;7.00;99.90
10296;DHT22;5193;51.032;6.356;2024-03-02T07:56:12;7.00;99.90
10296;DHT22;5193;51.032;6.356;2024-03-02T07:58:38;7.00;99.90
10296;DHT22;5193;51.032;6.356;2024-03-02T08:01:18;7.00;99.90
10296;DHT22;5193;51.032;6.356;2024-03-02T08:03:44;7.00;99.90
10296;DHT22;5193;51.032;6.356;2024-03-02T08:06:16;7.00;99.90
10296;DHT22;5193;51.032;6.356;2024-03-02T08:08:43;7.10;99.90
10296;DHT22;5193;51.032;6.356;2024-03-02T08:11:08;7.10;99.90
10296;DHT22;5193;51.032;6.356;2024-03-02T08:13:34;7.10;99.90
10296;DHT22;5193;51.032;6.356;2024-03-02T08:16:00;7.20;99.90
10296;DHT22;5193;51.032;6.356;2024-03-02T08:18:26;7.20;99.90
10296;DHT22;5193;51.032;6.356;2024-03-02T08:20:51;7.30;99.90
10296;DHT22;5193;51.032;6.356;2024-03-02T08:23:17;7.50;99.90
10296;DHT22;5193;51.032;6.356;2024-03-02T08:25:43;7.60;99.90
10296;DHT22;5193;51.032;6.356;2024-03-02T08:28:08;7.70;99.90
10296;DHT22;5193;51.032;6.356;2024-03-02T08:30:37;7.90;99.90
10296;DHT22;5193;51.032;6.356;2024-03-02T08:33:03;8.00;99.90
10296;DHT22;5193;51.032;6.356;2024-03-02T08:35:28;8.20;99.90
10296;DHT22;5193;51.032;6.356;2024-03-02T08:37:54;8.30;99.90
10296;DHT22;5193;51.032;6.356;2024-03-02T08:40:20;8.40;99.90
10296;DHT22;5193;51.032;6.356;2024-03-02T08:42:52;8.40;99.90
10296;DHT22;5193;51.032;6.356;2024-03-02T08:45:18;8.50;99.90
10296;DHT22;5193;51.032;6.356;2024-03-02T08:47:46;8.50;99.90
10296;DHT22;5193;51.032;6.356;2024-03-02T08:50:11;8.60;99.90
10296;DHT22;5193;51.032;6.356;2024-03-02T08:52:37;8.60;99.90
10296;DHT22;5193;51.032;6.356;2024-03-02T08:55:03;8.60;99.90
10296;DHT22;5193;51.032;6.356;2024-03-02T08:57:32;8.70;99.90
10296;DHT22;5193;51.032;6.356;2024-03-02T08:59:57;8.70;99.90
10296;DHT22;5193;51.032;6.356;2024-03-02T09:02:23;8.70;99.90
10296;DHT22;5193;51.032;6.356;2024-03-02T09:04:49;8.70;99.90
10296;DHT22;5193;51.032;6.356;2024-03-02T09:07:14;8.70;99.90
10296;DHT22;5193;51.032;6.356;2024-03-02T09:09:40;8.70;99.90
10296;DHT22;5193;51.032;6.356;2024-03-02T09:12:07;8.80;99.90
10296;DHT22;5193;51.032;6.356;2024-03-02T09:14:36;8.80;99.90
10296;DHT22;5193;51.032;6.356;2024-03-02T09:17:03;8.80;99.90
10296;DHT22;5193;51.032;6.356;2024-03-02T09:19:29;8.90;99.90
10296;DHT22;5193;51.032;6.356;2024-03-02T09:21:55;8.90;99.90
10296;DHT22;5193;51.032;6.356;2024-03-02T09:24:23;9.00;99.90
10296;DHT22;5193;51.032;6.356;2024-03-02T09:26:48;9.00;99.90
10296;DHT22;5193;51.032;6.356;2024-03-02T09:29:14;9.10;99.90
10296;DHT22;5193;51.032;6.356;2024-03-02T09:31:43;9.20;99.90
10296;DHT22;5193;51.032;6.356;2024-03-02T09:34:09;9.20;99.90
10296;DHT22;5193;51.032;6.356;2024-03-02T09:36:37;9.30;99.90
10296;DHT22;5193;51.032;6.356;2024-03-02T09:39:09;9.40;99.90
10296;DHT22;5193;51.032;6.356;2024-03-02T09:41:43;9.50;99.90
10296;DHT22;5193;51.032;6.356;2024-03-02T09:44:09;9.60;99.90
10296;DHT22;5193;51.032;6.356;2024-03-02T09:46:36;9.60;99.90
10296;DHT22;5193;51.032;6.356;2024-03-02T09:49:02;9.70;99.90
10296;DHT22;5193;51.032;6.356;2024-03-02T09:51:37;9.80;99.90
10296;DHT22;5193;51.032;6.356;2024-03-02T09:54:03;9.90;99.90
10296;DHT22;5193;51.032;6.356;2024-03-02T09:56:29;10.10;99.90
10296;DHT22;5193;51.032;6.356;2024-03-02T09:58:55;10.20;99.90
10296;DHT22;5193;51.032;6.356;2024-03-02T10:01:20;10.30;99.90
10296;DHT22;5193;51.032;6.356;2024-03-02T10:03:51;10.40;99.90
10296;DHT22;5193;51.032;6.356;2024-03-02T10:06:28;10.60;99.90
10296;DHT22;5193;51.032;6.356;2024-03-02T10:08:55;10.60;99.90
10296;DHT22;5193;51.032;6.356;2024-03-02T10:11:29;10.60;99.90
10296;DHT22;5193;51.032;6.356;2024-03-02T10:14:10;10.60;99.90
10296;DHT22;5193;51.032;6.356;2024-03-02T10:16:45;10.60;99.90
10296;DHT22;5193;51.032;6.356;2024-03-02T10:19:21;10.50;99.90
10296;DHT22;5193;51.032;6.356;2024-03-02T10:21:51;10.60;99.90
10296;DHT22;5193;51.032;6.356;2024-03-02T10:24:26;10.60;99.90
10296;DHT22;5193;51.032;6.356;2024-03-02T10:26:58;10.70;99.90
10296;DHT22;5193;51.032;6.356;2024-03-02T10:32:49;11.00;99.90
10296;DHT22;5193;51.032;6.356;2024-03-02T10:35:18;11.10;99.90
10296;DHT22;5193;51.032;6.356;2024-03-02T10:37:44;11.30;99.90
10296;DHT22;5193;51.032;6.356;2024-03-02T10:40:12;11.40;99.90
10296;DHT22;5193;51.032;6.356;2024-03-02T10:42:39;11.60;99.90
10296;DHT22;5193;51.032;6.356;2024-03-02T10:45:07;11.70;99.90
10296;DHT22;5193;51.032;6.356;2024-03-02T10:47:50;11.80;99.90
10296;DHT22;5193;51.032;6.356;2024-03-02T10:50:19;11.90;99.90
10296;DHT22;5193;51.032;6.356;2024-03-02T10:52:46;12.10;99.90
10296;DHT22;5193;51.032;6.356;2024-03-02T10:55:14;12.10;99.90
10296;DHT22;5193;51.032;6.356;2024-03-02T10:58:00;12.20;99.90
10296;DHT22;5193;51.032;6.356;2024-03-02T11:00:35;12.30;99.90
10296;DHT22;5193;51.032;6.356;2024-03-02T11:03:08;12.40;99.90
10296;DHT22;5193;51.032;6.356;2024-03-02T11:05:47;12.50;99.90
10296;DHT22;5193;51.032;6.356;2024-03-02T11:08:18;12.60;99.90
10296;DHT22;5193;51.032;6.356;2024-03-02T11:10:57;12.70;99.90
10296;DHT22;5193;51.032;6.356;2024-03-02T11:13:33;12.80;99.90
10296;DHT22;5193;51.032;6.356;2024-03-02T11:16:06;12.90;99.90
10296;DHT22;5193;51.032;6.356;2024-03-02T11:18:36;13.00;99.90
10296;DHT22;5193;51.032;6.356;2024-03-02T11:21:03;13.10;99.90
10296;DHT22;5193;51.032;6.356;2024-03-02T11:23:39;13.10;99.90
10296;DHT22;5193;51.032;6.356;2024-03-02T11:26:22;13.10;99.90
10296;DHT22;5193;51.032;6.356;2024-03-02T11:28:52;13.20;99.90
10296;DHT22;5193;51.032;6.356;2024-03-02T11:31:18;13.30;99.90
10296;DHT22;5193;51.032;6.356;2024-03-02T11:33:47;13.40;99.90
10296;DHT22;5193;51.032;6.356;2024-03-02T11:36:13;13.50;99.90
10296;DHT22;5193;51.032;6.356;2024-03-02T11:38:38;13.70;99.90
10296;DHT22;5193;51.032;6.356;2024-03-02T11:41:09;13.80;99.90
10296;DHT22;5193;51.032;6.356;2024-03-02T11:43:37;13.90;99.90
10296;DHT22;5193;51.032;6.356;2024-03-02T11:46:15;13.90;99.90
10296;DHT22;5193;51.032;6.356;2024-03-02T11:48:42;13.80;99.90
10296;DHT22;5193;51.032;6.356;2024-03-02T11:54:33;13.70;99.90
10296;DHT22;5193;51.032;6.356;2024-03-02T11:57:07;13.70;99.90
10296;DHT22;5193;51.032;6.356;2024-03-02T11:59:33;13.70;99.90
10296;DHT22;5193;51.032;6.356;2024-03-02T12:02:02;13.80;99.90
10296;DHT22;5193;51.032;6.356;2024-03-02T12:04:29;13.80;99.90
10296;DHT22;5193;51.032;6.356;2024-03-02T12:07:19;13.90;99.90
10296;DHT22;5193;51.032;6.356;2024-03-02T12:09:47;14.00;99.90
10296;DHT22;5193;51.032;6.356;2024-03-02T12:12:16;14.00;99.90
10296;DHT22;5193;51.032;6.356;2024-03-02T12:14:53;14.10;99.90
10296;DHT22;5193;51.032;6.356;2024-03-02T12:17:23;14.10;99.90
10296;DHT22;5193;51.032;6.356;2024-03-02T12:19:49;14.20;99.90
10296;DHT22;5193;51.032;6.356;2024-03-02T12:22:15;14.20;99.90
10296;DHT22;5193;51.032;6.356;2024-03-02T12:24:44;14.20;99.90
10296;DHT22;5193;51.032;6.356;2024-03-02T12:27:14;14.20;99.90
10296;DHT22;5193;51.032;6.356;2024-03-02T12:29:40;14.20;99.90
10296;DHT22;5193;51.032;6.356;2024-03-02T12:32:15;14.20;99.90
10296;DHT22;5193;51.032;6.356;2024-03-02T12:34:41;14.30;99.90
10296;DHT22;5193;51.032;6.356;2024-03-02T12:37:07;14.40;99.90
10296;DHT22;5193;51.032;6.356;2024-03-02T12:39:32;14.40;99.90
10296;DHT22;5193;51.032;6.356;2024-03-02T12:41:58;14.50;99.90
10296;DHT22;5193;51.032;6.356;2024-03-02T12:44:24;14.60;99.90
10296;DHT22;5193;51.032;6.356;2024-03-02T12:46:49;14.60;99.90
10296;DHT22;5193;51.032;6.356;2024-03-02T12:49:15;14.70;99.90
10296;DHT22;5193;51.032;6.356;2024-03-02T12:51:42;14.70;99.90
10296;DHT22;5193;51.032;6.356;2024-03-02T12:54:11;14.80;99.90
10296;DHT22;5193;51.032;6.356;2024-03-02T12:56:37;14.90;99.90
10296;DHT22;5193;51.032;6.356;2024-03-02T12:59:06;14.90;99.90
10296;DHT22;5193;51.032;6.356;2024-03-02T13:01:31;14.90;99.90
10296;DHT22;5193;51.032;6.356;2024-03-02T13:03:58;14.80;99.90
10296;DHT22;5193;51.032;6.356;2024-03-02T13:06:25;14.80;99.90
10296;DHT22;5193;51.032;6.356;2024-03-02T13:08:55;14.80;99.90
10296;DHT22;5193;51.032;6.356;2024-03-02T13:11:21;14.80;99.90
10296;DHT22;5193;51.032;6.356;2024-03-02T13:13:51;14.80;99.90
10296;DHT22;5193;51.032;6.356;2024-03-02T13:16:18;14.90;99.90
10296;DHT22;5193;51.032;6.356;2024-03-02T13:18:45;14.80;99.90
10296;DHT22;5193;51.032;6.356;2024-03-02T13:21:10;14.80;99.90
10296;DHT22;5193;51.032;6.356;2024-03-02T13:23:36;14.90;99.90
10296;DHT22;5193;51.032;6.356;2024-03-02T13:26:02;14.90;99.90
10296;DHT22;5193;51.032;6.356;2024-03-02T13:28:28;14.80;99.90
10296;DHT22;5193;51.032;6.356;2024-03-02T13:30:57;14.70;99.90
10296;DHT22;5193;51.032;6.356;2024-03-02T13:33:23;14.80;99.90
10296;DHT22;5193;51.032;6.356;2024-03-02T13:35:50;14.80;99.90
10296;DHT22;5193;51.032;6.356;2024-03-02T13:38:17;14.70;99.90
10296;DHT22;5193;51.032;6.356;2024-03-02T13:40:50;14.60;99.90
10296;DHT22;5193;51.032;6.356;2024-03-02T13:43:19;14.50;99.90
10296;DHT22;5193;51.032;6.356;2024-03-02T13:45:45;14.30;99.90
10296;DHT22;5193;51.032;6.356;2024-03-02T13:48:11;14.20;99.90
10296;DHT22;5193;51.032;6.356;2024-03-02T13:50:36;14.10;99.90
10296;DHT22;5193;51.032;6.356;2024-03-02T13:53:02;14.00;99.90
10296;DHT22;5193;51.032;6.356;2024-03-02T13:55:32;13.90;99.90
10296;DHT22;5193;51.032;6.356;2024-03-02T13:57:58;13.90;99.90
10296;DHT22;5193;51.032;6.356;2024-03-02T14:00:24;13.90;99.90
10296;DHT22;5193;51.032;6.356;2024-03-02T14:02:50;13.80;99.90
10296;DHT22;5193;51.032;6.356;2024-03-02T14:05:16;13.80;99.90
10296;DHT22;5193;51.032;6.356;2024-03-02T14:07:42;13.80;99.90
10296;DHT22;5193;51.032;6.356;2024-03-02T14:10:10;13.80;99.90
10296;DHT22;5193;51.032;6.356;2024-03-02T14:12:37;13.70;99.90
10296;DHT22;5193;51.032;6.356;2024-03-02T14:15:03;13.70;99.90
10296;DHT22;5193;51.032;6.356;2024-03-02T14:17:30;13.70;99.90
10296;DHT22;5193;51.032;6.356;2024-03-02T14:19:57;13.70;99.90
10296;DHT22;5193;51.032;6.356;2024-03-02T14:22:27;13.70;99.90
10296;DHT22;5193;51.032;6.356;2024-03-02T14:24:53;13.60;99.90
10296;DHT22;5193;51.032;6.356;2024-03-02T14:27:18;13.60;99.90
10296;DHT22;5193;51.032;6.356;2024-03-02T14:29:44;13.50;99.90
10296;DHT22;5193;51.032;6.356;2024-03-02T14:32:11;13.50;99.90
10296;DHT22;5193;51.032;6.356;2024-03-02T14:34:37;13.50;99.90
10296;DHT22;5193;51.032;6.356;2024-03-02T14:37:03;13.50;99.90
10296;DHT22;5193;51.032;6.356;2024-03-02T14:39:29;13.50;99.90
10296;DHT22;5193;51.032;6.356;2024-03-02T14:45:21;13.60;99.90
10296;DHT22;5193;51.032;6.356;2024-03-02T14:47:47;13.60;99.90
10296;DHT22;5193;51.032;6.356;2024-03-02T14:53:36;13.60;99.90
10296;DHT22;5193;51.032;6.356;2024-03-02T14:56:04;13.60;99.90
10296;DHT22;5193;51.032;6.356;2024-03-02T14:58:30;13.70;99.90
10296;DHT22;5193;51.032;6.356;2024-03-02T15:00:56;13.70;99.90
10296;DHT22;5193;51.032;6.356;2024-03-02T15:03:22;13.60;99.90
10296;DHT22;5193;51.032;6.356;2024-03-02T15:05:47;13.60;99.90
10296;DHT22;5193;51.032;6.356;2024-03-02T15:08:20;13.60;99.90
10296;DHT22;5193;51.032;6.356;2024-03-02T15:10:48;13.50;99.90
10296;DHT22;5193;51.032;6.356;2024-03-02T15:13:17;13.40;99.90
10296;DHT22;5193;51.032;6.356;2024-03-02T15:15:43;13.40;99.90
10296;DHT22;5193;51.032;6.356;2024-03-02T15:18:08;13.40;99.90
10296;DHT22;5193;51.032;6.356;2024-03-02T15:20:37;13.30;99.90
10296;DHT22;5193;51.032;6.356;2024-03-02T15:23:03;13.30;99.90
10296;DHT22;5193;51.032;6.356;2024-03-02T15:25:28;13.30;99.90
10296;DHT22;5193;51.032;6.356;2024-03-02T15:27:54;13.20;99.90
10296;DHT22;5193;51.032;6.356;2024-03-02T15:30:45;13.20;99.90
10296;DHT22;5193;51.032;6.356;2024-03-02T15:33:10;13.20;99.90
10296;DHT22;5193;51.032;6.356;2024-03-02T15:35:38;13.10;99.90
10296;DHT22;5193;51.032;6.356;2024-03-02T15:38:05;13.10;99.90
10296;DHT22;5193;51.032;6.356;2024-03-02T15:40:30;13.00;99.90
10296;DHT22;5193;51.032;6.356;2024-03-02T15:42:56;13.00;99.90
10296;DHT22;5193;51.032;6.356;2024-03-02T15:45:21;13.00;99.90
10296;DHT22;5193;51.032;6.356;2024-03-02T15:47:47;12.90;99.90
10296;DHT22;5193;51.032;6.356;2024-03-02T15:50:12;12.90;99.90
10296;DHT22;5193;51.032;6.356;2024-03-02T15:52:44;12.90;99.90
10296;DHT22;5193;51.032;6.356;2024-03-02T15:55:10;12.90;99.90
10296;DHT22;5193;51.032;6.356;2024-03-02T15:57:36;12.90;99.90
10296;DHT22;5193;51.032;6.356;2024-03-02T16:00:05;12.80;99.90
10296;DHT22;5193;51.032;6.356;2024-03-02T16:02:32;12.80;99.90
10296;DHT22;5193;51.032;6.356;2024-03-02T16:05:02;12.80;99.90
10296;DHT22;5193;51.032;6.356;2024-03-02T16:07:27;12.80;99.90
10296;DHT22;5193;51.032;6.356;2024-03-02T16:09:53;12.80;99.90
10296;DHT22;5193;51.032;6.356;2024-03-02T16:12:19;12.80;99.90